Time;durP1;ratioP1;P1;durP2;ratioP2;P2;SDS_P1;SDS_P2;PMS_P1;PMS_P2;Temp;Humidity;BMP_temperature;BMP_pressure;BME280_temperature;BME280_humidity;BME280_pressure;Samples;Min_cycle;Max_cycle;Signal;HPM_P1;HPM_P2
2022/10/25 00:02:20;;;;;;;7.85;6.80;;;23.70;55.50;;;;;;5068063;28;20064;-59
2022/10/25 00:04:47;;;;;;;7.10;6.40;;;23.70;55.50;;;;;;5067437;28;20056;-60
2022/10/25 00:07:14;;;;;;;8.43;6.80;;;23.70;55.50;;;;;;5066674;28;20456;-60
2022/10/25 00:09:41;;;;;;;7.70;6.60;;;23.70;55.50;;;;;;5053200;28;20049;-59
2022/10/25 00:12:08;;;;;;;8.20;6.50;;;23.70;55.50;;;;;;5066026;28;20051;-60
2022/10/25 00:14:35;;;;;;;8.73;6.55;;;23.70;55.50;;;;;;5065159;28;20142;-60
2022/10/25 00:17:02;;;;;;;7.15;6.22;;;23.70;55.50;;;;;;5068188;28;20488;-60
2022/10/25 00:19:29;;;;;;;7.65;6.45;;;23.70;55.50;;;;;;5067910;28;20052;-59
2022/10/25 00:21:56;;;;;;;9.50;6.70;;;23.70;55.50;;;;;;5067619;28;20044;-60
2022/10/25 00:24:24;;;;;;;8.13;6.68;;;23.70;55.50;;;;;;5062469;28;20063;-59
2022/10/25 00:26:51;;;;;;;7.82;6.85;;;23.70;55.50;;;;;;5067831;28;20664;-60
2022/10/25 00:29:18;;;;;;;8.40;6.70;;;23.70;55.50;;;;;;5066573;28;20049;-60
2022/10/25 00:31:45;;;;;;;9.43;6.90;;;23.60;55.40;;;;;;5067255;28;20049;-59
2022/10/25 00:34:12;;;;;;;8.88;6.53;;;23.60;55.40;;;;;;5067046;28;20110;-59
2022/10/25 00:36:39;;;;;;;9.02;7.22;;;23.70;55.50;;;;;;5067523;28;20162;-60
2022/10/25 00:39:06;;;;;;;8.88;6.63;;;23.60;55.40;;;;;;5066765;28;20505;-59
2022/10/25 00:41:33;;;;;;;7.65;6.40;;;23.70;55.50;;;;;;5066027;28;20059;-59
2022/10/25 00:44:40;;;;;;;6.88;6.05;;;23.60;55.40;;;;;;5067258;28;20165;-59
2022/10/25 00:47:43;;;;;;;8.48;6.68;;;23.60;55.40;;;;;;5067228;28;20048;-60
2022/10/25 00:50:46;;;;;;;8.70;6.68;;;23.60;55.50;;;;;;5067076;28;20088;-59
2022/10/25 00:53:19;;;;;;;7.45;6.68;;;23.60;55.40;;;;;;5067313;28;20048;-60
2022/10/25 00:55:58;;;;;;;9.38;6.53;;;23.60;55.50;;;;;;5061614;28;20052;-59
2022/10/25 00:58:27;;;;;;;7.97;7.18;;;23.60;55.40;;;;;;5066894;28;20049;-60
2022/10/25 01:00:55;;;;;;;7.38;6.50;;;23.60;55.50;;;;;;5065652;28;20485;-59
2022/10/25 01:03:23;;;;;;;11.27;6.70;;;23.60;55.40;;;;;;5063266;28;20056;-60
2022/10/25 01:05:52;;;;;;;8.60;7.03;;;23.60;55.40;;;;;;5064813;28;20055;-60
2022/10/25 01:08:21;;;;;;;9.13;7.03;;;23.60;55.40;;;;;;5066595;28;20053;-59
2022/10/25 01:10:48;;;;;;;7.63;6.63;;;23.60;55.40;;;;;;5067085;28;20045;-60
2022/10/25 01:13:15;;;;;;;8.30;7.22;;;23.60;55.50;;;;;;5066733;28;20485;-60
2022/10/25 01:16:02;;;;;;;7.57;6.63;;;23.60;55.40;;;;;;5070772;28;20420;-59
2022/10/25 01:18:50;;;;;;;7.15;6.45;;;23.60;55.40;;;;;;5070610;28;20045;-60
2022/10/25 01:21:38;;;;;;;7.32;6.43;;;23.60;55.40;;;;;;5069984;28;20057;-59
2022/10/25 01:24:28;;;;;;;8.07;6.57;;;23.60;55.30;;;;;;5070144;28;20051;-60
2022/10/25 01:27:15;;;;;;;;;;;23.60;55.30;;;;;;5069765;28;20053;-59
2022/10/25 01:30:17;;;;;;;9.27;6.68;;;23.60;55.30;;;;;;5069055;28;19924;-60
2022/10/25 01:32:59;;;;;;;7.68;6.50;;;23.60;55.30;;;;;;5066563;28;20056;-60
2022/10/25 01:35:39;;;;;;;7.88;6.03;;;23.60;55.30;;;;;;5069244;28;20055;-59
2022/10/25 01:38:32;;;;;;;8.02;6.45;;;23.50;55.30;;;;;;5066649;28;20452;-59
2022/10/25 01:41:26;;;;;;;8.20;6.80;;;23.60;55.30;;;;;;5070347;28;20124;-60
2022/10/25 01:44:22;;;;;;;7.97;6.68;;;23.60;55.40;;;;;;5070694;28;20477;-60
2022/10/25 01:47:00;;;;;;;7.72;6.65;;;23.60;55.30;;;;;;5069750;28;20049;-59
2022/10/25 01:49:47;;;;;;;7.13;6.15;;;23.60;55.30;;;;;;5069539;28;20055;-60
2022/10/25 01:52:19;;;;;;;8.27;6.57;;;23.50;55.30;;;;;;5069301;28;20049;-59
2022/10/25 01:54:47;;;;;;;8.20;6.93;;;23.60;55.30;;;;;;5069836;28;20296;-60
2022/10/25 01:57:43;;;;;;;8.70;6.47;;;23.60;55.30;;;;;;5068546;28;20493;-59
2022/10/25 02:00:18;;;;;;;8.20;6.43;;;23.50;55.30;;;;;;5064458;28;20456;-60
2022/10/25 02:03:24;;;;;;;7.30;6.22;;;23.50;55.30;;;;;;5070280;28;20214;-60
2022/10/25 02:06:31;;;;;;;7.82;5.80;;;23.50;55.40;;;;;;5068939;28;20049;-60
2022/10/25 02:09:28;;;;;;;8.35;6.75;;;23.50;55.40;;;;;;5069059;28;20053;-60
2022/10/25 02:11:58;;;;;;;8.07;6.63;;;23.50;55.30;;;;;;5068914;28;20055;-59
2022/10/25 02:14:39;;;;;;;6.78;6.05;;;23.50;55.40;;;;;;5070349;28;20287;-59
2022/10/25 02:17:21;;;;;;;6.45;5.75;;;23.50;55.40;;;;;;5067976;28;20599;-60
2022/10/25 02:19:52;;;;;;;8.48;6.75;;;23.50;55.40;;;;;;5069803;28;20056;-60
2022/10/25 02:22:22;;;;;;;;;;;23.50;55.40;;;;;;5069269;28;20446;-59
2022/10/25 02:24:50;;;;;;;6.35;5.72;;;23.50;55.40;;;;;;5069482;28;19924;-59
2022/10/25 02:27:21;;;;;;;7.18;6.10;;;23.50;55.40;;;;;;5069276;28;20046;-60
2022/10/25 02:29:50;;;;;;;6.93;5.93;;;23.50;55.40;;;;;;5068691;28;20074;-60
2022/10/25 02:32:18;;;;;;;6.13;5.45;;;23.50;55.40;;;;;;5065005;28;20496;-60
2022/10/25 02:34:49;;;;;;;7.78;6.28;;;23.50;55.40;;;;;;5068923;28;20509;-59
2022/10/25 02:37:17;;;;;;;6.68;5.70;;;23.50;55.40;;;;;;5068836;28;20419;-60
2022/10/25 02:39:44;;;;;;;8.00;5.93;;;23.50;55.40;;;;;;5069205;28;20057;-60
2022/10/25 02:42:12;;;;;;;6.68;5.95;;;23.50;55.40;;;;;;5068662;28;20436;-60
2022/10/25 02:44:39;;;;;;;7.88;6.85;;;23.50;55.30;;;;;;5069175;28;20055;-60
2022/10/25 02:47:06;;;;;;;9.75;6.82;;;23.50;55.30;;;;;;5068400;28;20040;-59
2022/10/25 02:49:33;;;;;;;8.05;6.55;;;23.50;55.20;;;;;;5068317;28;20052;-59
2022/10/25 02:52:00;;;;;;;6.93;5.93;;;23.50;55.30;;;;;;5067622;28;20045;-59
2022/10/25 02:54:27;;;;;;;7.20;6.50;;;23.50;55.30;;;;;;5066556;28;20067;-60
2022/10/25 02:56:54;;;;;;;7.05;6.07;;;23.50;55.20;;;;;;5068571;28;20048;-60
2022/10/25 02:59:21;;;;;;;6.38;5.75;;;23.50;55.20;;;;;;5067820;28;20056;-59
2022/10/25 03:01:48;;;;;;;8.15;6.50;;;23.50;55.20;;;;;;5068645;28;20040;-60
2022/10/25 03:04:15;;;;;;;7.47;6.53;;;23.50;55.20;;;;;;5064578;28;20409;-60
2022/10/25 03:06:42;;;;;;;7.85;6.63;;;23.50;55.70;;;;;;5068341;28;20488;-60
2022/10/25 03:09:10;;;;;;;8.68;6.15;;;23.50;55.10;;;;;;5067832;28;20052;-60
2022/10/25 03:11:37;;;;;;;6.70;6.10;;;23.40;55.10;;;;;;5067916;28;20048;-60
2022/10/25 03:14:04;;;;;;;7.30;6.25;;;23.50;55.10;;;;;;5068651;28;20149;-59
2022/10/25 03:16:31;;;;;;;7.03;6.22;;;23.40;55.10;;;;;;5068644;28;20044;-60
2022/10/25 03:18:58;;;;;;;6.70;6.00;;;23.40;55.10;;;;;;5068146;28;20044;-59
2022/10/25 03:21:26;;;;;;;6.97;5.93;;;23.40;55.10;;;;;;5068935;28;20058;-60
2022/10/25 03:23:53;;;;;;;9.50;6.65;;;23.40;55.10;;;;;;5067310;28;20055;-60
2022/10/25 03:26:20;;;;;;;7.53;6.47;;;23.40;55.10;;;;;;5068205;28;20055;-60
2022/10/25 03:28:47;;;;;;;7.03;6.10;;;23.40;55.10;;;;;;5068006;28;20071;-59
2022/10/25 03:31:16;;;;;;;6.55;5.68;;;23.40;55.10;;;;;;5067229;28;20432;-59
2022/10/25 03:33:43;;;;;;;6.35;5.40;;;23.40;55.20;;;;;;5070317;28;20052;-59
2022/10/25 03:36:10;;;;;;;11.73;6.10;;;23.40;55.10;;;;;;5069507;28;20048;-60
2022/10/25 03:38:37;;;;;;;6.85;6.05;;;23.40;55.20;;;;;;5077345;28;20052;-60
2022/10/25 03:41:04;;;;;;;6.68;5.53;;;23.40;55.10;;;;;;5075930;28;20052;-60
2022/10/25 03:43:31;;;;;;;6.40;5.80;;;23.40;55.20;;;;;;5079407;28;20495;-60
2022/10/25 03:45:58;;;;;;;7.93;6.25;;;23.40;55.20;;;;;;5067967;28;20527;-59
2022/10/25 03:48:26;;;;;;;6.97;6.28;;;23.40;55.20;;;;;;5071287;28;20268;-60
2022/10/25 03:50:53;;;;;;;8.93;6.07;;;23.40;55.20;;;;;;5073234;28;20051;-60
2022/10/25 03:53:21;;;;;;;7.32;5.85;;;23.40;55.30;;;;;;5072807;28;20357;-60
2022/10/25 03:55:48;;;;;;;6.47;5.78;;;23.40;55.30;;;;;;5067926;28;20040;-60
2022/10/25 03:58:16;;;;;;;7.22;6.00;;;23.40;55.30;;;;;;5067779;28;20095;-60
2022/10/25 04:00:43;;;;;;;6.88;6.18;;;23.40;55.30;;;;;;5070002;28;20059;-59
2022/10/25 04:03:10;;;;;;;7.13;6.07;;;23.40;55.30;;;;;;5066237;28;20177;-59
2022/10/25 04:05:37;;;;;;;5.68;4.95;;;23.40;55.20;;;;;;5066587;28;20297;-60
2022/10/25 04:08:05;;;;;;;6.70;6.00;;;23.40;55.20;;;;;;5063137;28;20075;-60
2022/10/25 04:10:32;;;;;;;8.13;6.35;;;23.40;55.10;;;;;;5067513;28;20048;-60
2022/10/25 04:12:59;;;;;;;7.45;5.95;;;23.40;55.10;;;;;;5066894;28;20048;-59
2022/10/25 04:15:26;;;;;;;6.90;5.57;;;23.40;55.10;;;;;;5065970;28;20512;-60
2022/10/25 04:17:54;;;;;;;7.05;6.25;;;23.40;55.10;;;;;;5066965;28;20046;-59
2022/10/25 04:20:21;;;;;;;7.78;6.47;;;23.40;55.10;;;;;;5067257;28;20052;-59
2022/10/25 04:22:57;;;;;;;6.70;6.07;;;23.30;55.00;;;;;;5077434;28;20507;-60
2022/10/25 04:25:27;;;;;;;6.93;5.88;;;23.40;55.00;;;;;;5046956;28;20238;-59
2022/10/25 04:27:54;;;;;;;6.30;5.50;;;23.40;55.00;;;;;;5047360;28;20479;-59
2022/10/25 04:30:21;;;;;;;8.30;5.90;;;23.40;55.00;;;;;;5045777;28;20409;-59
2022/10/25 04:32:48;;;;;;;7.07;5.93;;;23.30;55.00;;;;;;5047197;28;20505;-60
2022/10/25 04:35:16;;;;;;;6.68;5.97;;;23.30;55.00;;;;;;5046691;28;20056;-59
2022/10/25 04:37:43;;;;;;;7.05;5.57;;;23.30;54.90;;;;;;5047488;28;20075;-59
2022/10/25 04:40:11;;;;;;;8.77;5.63;;;23.30;54.80;;;;;;5054866;28;20055;-59
2022/10/25 04:42:38;;;;;;;6.32;5.45;;;23.30;54.70;;;;;;5064684;28;20051;-59
2022/10/25 04:45:05;;;;;;;5.63;5.03;;;23.30;54.60;;;;;;5067548;28;20049;-59
2022/10/25 04:47:32;;;;;;;6.03;5.43;;;23.30;54.60;;;;;;5067297;28;20055;-60
2022/10/25 04:50:00;;;;;;;6.47;5.50;;;23.30;54.50;;;;;;5068532;28;20493;-59
2022/10/25 04:52:30;;;;;;;6.20;4.88;;;23.30;54.50;;;;;;5070929;28;20472;-59
2022/10/25 04:54:58;;;;;;;6.88;5.47;;;23.30;54.40;;;;;;5069546;28;20040;-60
2022/10/25 04:57:25;;;;;;;5.78;5.03;;;23.30;54.30;;;;;;5070739;28;20068;-59
2022/10/25 04:59:52;;;;;;;6.32;5.30;;;23.30;54.40;;;;;;5070608;28;20394;-60
2022/10/25 05:02:20;;;;;;;5.43;4.60;;;23.30;54.30;;;;;;5071231;28;20061;-60
2022/10/25 05:04:47;;;;;;;5.28;4.65;;;23.30;54.30;;;;;;5070943;28;20047;-59
2022/10/25 05:07:17;;;;;;;6.53;5.47;;;23.30;54.30;;;;;;5070083;28;20064;-59
2022/10/25 05:09:44;;;;;;;7.65;5.72;;;23.30;54.30;;;;;;5064251;28;20045;-60
2022/10/25 05:12:14;;;;;;;5.63;5.07;;;23.30;54.20;;;;;;5067014;28;20040;-59
2022/10/25 05:14:41;;;;;;;5.78;4.70;;;23.30;54.20;;;;;;5057682;28;20487;-59
2022/10/25 05:17:08;;;;;;;6.65;4.90;;;23.30;54.30;;;;;;5055103;28;20048;-59
2022/10/25 05:19:35;;;;;;;5.45;4.63;;;23.30;54.30;;;;;;5058449;28;20045;-63
2022/10/25 05:22:02;;;;;;;4.60;4.13;;;23.30;54.30;;;;;;5048920;28;20041;-61
2022/10/25 05:24:29;;;;;;;5.28;4.65;;;23.30;54.30;;;;;;5056074;28;20052;-61
2022/10/25 05:26:56;;;;;;;4.78;4.22;;;23.30;54.40;;;;;;5058650;28;20051;-60
2022/10/25 05:29:24;;;;;;;6.25;4.78;;;23.30;54.50;;;;;;5055449;28;20045;-61
2022/10/25 05:31:51;;;;;;;4.80;4.20;;;23.30;54.50;;;;;;5058829;28;20060;-61
2022/10/25 05:34:18;;;;;;;5.95;4.65;;;23.30;54.50;;;;;;5056387;28;20048;-60
2022/10/25 05:36:46;;;;;;;5.15;4.57;;;23.40;54.50;;;;;;5053211;28;20091;-61
2022/10/25 05:39:13;;;;;;;5.63;4.25;;;23.40;54.50;;;;;;5052328;28;20058;-61
2022/10/25 05:41:40;;;;;;;4.63;4.15;;;23.40;54.30;;;;;;5055150;28;20048;-61
2022/10/25 05:44:08;;;;;;;5.47;4.38;;;23.40;54.30;;;;;;5046799;28;20048;-61
2022/10/25 05:46:35;;;;;;;5.03;4.05;;;23.40;54.20;;;;;;5042699;28;20048;-62
2022/10/25 05:49:02;;;;;;;4.75;4.13;;;23.40;54.10;;;;;;5046836;28;20051;-62
2022/10/25 05:51:31;;;;;;;4.13;3.70;;;23.40;54.00;;;;;;5048882;28;20057;-62
2022/10/25 05:54:06;;;;;;;7.47;4.38;;;23.40;53.90;;;;;;5041676;28;20503;-61
2022/10/25 05:56:34;;;;;;;5.60;4.07;;;23.40;53.90;;;;;;5046908;28;20097;-63
2022/10/25 05:59:08;;;;;;;5.10;3.97;;;23.40;53.90;;;;;;5052077;28;20051;-61
2022/10/25 06:01:38;;;;;;;4.50;3.58;;;23.40;53.90;;;;;;5053543;28;20476;-61
2022/10/25 06:04:07;;;;;;;5.40;3.50;;;23.40;53.90;;;;;;5051053;28;20053;-61
2022/10/25 06:06:36;;;;;;;4.40;3.63;;;23.40;53.90;;;;;;5044034;28;20500;-61
2022/10/25 06:09:04;;;;;;;4.15;3.72;;;23.40;53.80;;;;;;5050504;28;20048;-61
2022/10/25 06:11:32;;;;;;;4.95;3.42;;;23.40;53.80;;;;;;5049269;28;20056;-61
2022/10/25 06:13:59;;;;;;;3.90;3.42;;;23.40;53.80;;;;;;5048144;28;20040;-61
2022/10/25 06:16:26;;;;;;;3.67;3.22;;;23.40;53.80;;;;;;5042975;28;20049;-61
2022/10/25 06:18:54;;;;;;;6.25;3.85;;;23.40;53.80;;;;;;5044599;28;20100;-61
2022/10/25 06:21:24;;;;;;;5.80;3.83;;;23.40;53.70;;;;;;5045371;28;20492;-61
2022/10/25 06:23:52;;;;;;;10.55;3.75;;;23.40;53.70;;;;;;5059966;28;20083;-60
2022/10/25 06:26:22;;;;;;;4.85;3.67;;;23.50;53.90;;;;;;5044800;28;20060;-60
2022/10/25 06:28:54;;;;;;;3.90;3.50;;;23.50;54.50;;;;;;5048653;28;20041;-62
2022/10/25 06:31:22;;;;;;;5.05;3.00;;;23.50;54.00;;;;;;5050744;28;20163;-61
2022/10/25 06:33:49;;;;;;;6.63;3.47;;;23.50;54.00;;;;;;5059203;28;20385;-62
2022/10/25 06:36:19;;;;;;;6.13;3.60;;;23.50;54.00;;;;;;5049426;28;20053;-61
2022/10/25 06:38:47;;;;;;;7.78;3.33;;;23.50;54.00;;;;;;5044449;28;20392;-61
2022/10/25 06:41:26;;;;;;;5.30;3.00;;;23.60;54.00;;;;;;5039376;28;20049;-60
2022/10/25 06:43:54;;;;;;;6.43;3.65;;;23.60;54.00;;;;;;5043819;28;20507;-61
2022/10/25 06:46:25;;;;;;;3.90;3.50;;;23.50;53.90;;;;;;5043955;28;20045;-60
2022/10/25 06:48:53;;;;;;;4.10;3.60;;;23.60;53.90;;;;;;5039747;28;20052;-61
2022/10/25 06:51:21;;;;;;;3.45;3.03;;;23.60;53.90;;;;;;5034355;28;20531;-62
2022/10/25 06:54:00;;;;;;;4.68;3.17;;;23.60;53.90;;;;;;5051722;28;20513;-60
2022/10/25 06:56:28;;;;;;;3.78;3.10;;;23.60;54.00;;;;;;5044907;28;20048;-61
2022/10/25 06:58:55;;;;;;;4.28;2.97;;;23.70;54.10;;;;;;5048208;28;20424;-62
2022/10/25 07:01:24;;;;;;;4.63;3.00;;;23.70;54.10;;;;;;5048974;28;20817;-62
2022/10/25 07:03:53;;;;;;;4.73;3.43;;;23.70;54.00;;;;;;5050263;28;20496;-63
2022/10/25 07:06:24;;;;;;;4.97;3.00;;;23.80;54.00;;;;;;5040520;28;20851;-63
2022/10/25 07:08:53;;;;;;;3.33;3.03;;;23.80;53.80;;;;;;5045775;28;20052;-61
2022/10/25 07:11:22;;;;;;;4.57;3.10;;;23.80;53.60;;;;;;5047326;28;20139;-61
2022/10/25 07:13:49;;;;;;;8.23;3.33;;;23.80;53.60;;;;;;5049115;28;20053;-62
2022/10/25 07:16:18;;;;;;;5.03;3.08;;;23.90;53.70;;;;;;5055049;28;20053;-63
2022/10/25 07:18:46;;;;;;;5.45;3.60;;;23.90;53.70;;;;;;5048361;28;20060;-60
2022/10/25 07:21:21;;;;;;;5.07;3.20;;;23.90;53.60;;;;;;5050607;28;20053;-62
2022/10/25 07:23:50;;;;;;;4.13;2.90;;;23.90;53.40;;;;;;5048024;28;20049;-62
2022/10/25 07:26:22;;;;;;;5.13;2.78;;;24.00;53.40;;;;;;5042957;28;20071;-61
2022/10/25 07:28:52;;;;;;;3.45;3.00;;;24.00;53.20;;;;;;5043869;28;20052;-61
2022/10/25 07:31:31;;;;;;;6.30;3.08;;;24.00;53.10;;;;;;5044232;28;20055;-62
2022/10/25 07:34:00;;;;;;;4.07;3.00;;;24.10;53.10;;;;;;5045664;28;20064;-62
2022/10/25 07:36:27;;;;;;;3.22;2.65;;;24.10;53.20;;;;;;5036158;28;20492;-62
2022/10/25 07:38:55;;;;;;;2.90;2.60;;;24.10;53.20;;;;;;5046710;28;20114;-62
2022/10/25 07:41:24;;;;;;;5.38;3.13;;;24.10;53.10;;;;;;5046189;28;20388;-61
2022/10/25 07:43:51;;;;;;;6.60;2.92;;;24.10;53.20;;;;;;5047141;28;20047;-61
2022/10/25 07:46:18;;;;;;;6.50;2.92;;;24.20;53.20;;;;;;5049117;28;20059;-62
2022/10/25 07:48:45;;;;;;;2.63;2.42;;;24.20;53.00;;;;;;5051695;28;20063;-61
2022/10/25 07:51:15;;;;;;;6.28;2.97;;;24.20;52.90;;;;;;5048030;28;20044;-62
2022/10/25 07:53:43;;;;;;;4.97;3.22;;;24.20;52.90;;;;;;5044165;28;20057;-62
2022/10/25 07:56:16;;;;;;;4.10;2.72;;;24.30;52.80;;;;;;5038793;28;20049;-61
2022/10/25 07:58:50;;;;;;;3.80;2.88;;;24.30;52.80;;;;;;5040914;28;20045;-61
2022/10/25 08:01:26;;;;;;;6.07;2.92;;;24.30;52.70;;;;;;5043004;28;20420;-61
2022/10/25 08:03:54;;;;;;;4.50;2.83;;;24.30;52.70;;;;;;5045243;28;20500;-62
2022/10/25 08:06:23;;;;;;;3.60;3.30;;;24.30;52.80;;;;;;5043724;28;20060;-62
2022/10/25 08:08:50;;;;;;;3.63;2.53;;;24.30;52.80;;;;;;5046150;28;20336;-62
2022/10/25 08:11:18;;;;;;;4.10;2.80;;;24.30;53.00;;;;;;5041978;28;20058;-61
2022/10/25 08:13:48;;;;;;;5.18;2.60;;;24.30;53.10;;;;;;5042717;28;20555;-62
2022/10/25 08:16:16;;;;;;;5.75;3.00;;;24.30;53.20;;;;;;5045055;28;20057;-61
2022/10/25 08:18:43;;;;;;;3.17;2.70;;;24.30;53.20;;;;;;5045956;28;20333;-61
2022/10/25 08:21:10;;;;;;;2.97;2.42;;;24.30;53.30;;;;;;5046822;28;20048;-62
2022/10/25 08:23:37;;;;;;;5.13;2.70;;;24.30;53.40;;;;;;5047200;28;20179;-61
2022/10/25 08:26:05;;;;;;;9.35;3.00;;;24.40;53.50;;;;;;5047765;28;20053;-63
2022/10/25 08:28:33;;;;;;;5.20;2.67;;;24.30;53.50;;;;;;5052792;28;20048;-62
2022/10/25 08:31:00;;;;;;;8.38;2.60;;;24.40;53.60;;;;;;5056279;28;20139;-60
2022/10/25 08:33:28;;;;;;;6.90;2.95;;;24.40;53.60;;;;;;5046617;28;20084;-62
2022/10/25 08:35:58;;;;;;;2.90;2.20;;;24.40;53.60;;;;;;5046257;28;20053;-61
2022/10/25 08:38:25;;;;;;;;;;;24.40;53.60;;;;;;5048803;28;20044;-61
2022/10/25 08:41:05;;;;;;;5.57;2.97;;;24.40;53.80;;;;;;5049076;28;19929;-61
2022/10/25 08:43:59;;;;;;;2.88;2.38;;;24.40;54.00;;;;;;5053365;28;20087;-61
2022/10/25 08:46:58;;;;;;;5.85;2.75;;;24.40;54.10;;;;;;5059094;28;20508;-62
2022/10/25 08:49:36;;;;;;;2.63;2.40;;;24.40;54.00;;;;;;5032103;28;20049;-62
2022/10/25 08:52:05;;;;;;;3.67;2.63;;;24.50;54.10;;;;;;5046985;28;20087;-61
2022/10/25 08:54:38;;;;;;;3.95;1.70;;;24.50;54.10;;;;;;5044217;28;20048;-61
2022/10/25 08:57:22;;;;;;;2.95;2.63;;;24.50;53.90;;;;;;5047434;28;20049;-61
2022/10/25 08:59:55;;;;;;;3.05;2.30;;;24.50;53.80;;;;;;5048585;28;20400;-63
2022/10/25 09:02:38;;;;;;;4.05;2.67;;;24.50;53.80;;;;;;5050716;28;20057;-60
2022/10/25 09:05:38;;;;;;;5.10;2.70;;;24.50;53.80;;;;;;5054932;28;20077;-61
2022/10/25 09:08:36;;;;;;;4.53;2.17;;;24.60;53.80;;;;;;5052729;28;20395;-62
2022/10/25 09:11:30;;;;;;;4.80;2.75;;;24.60;53.80;;;;;;5062484;28;20049;-61
2022/10/25 09:14:20;;;;;;;5.05;2.35;;;24.70;53.60;;;;;;5048141;28;20048;-61
2022/10/25 09:16:54;;;;;;;7.47;3.33;;;24.70;53.60;;;;;;5056172;28;20059;-61
2022/10/25 09:19:37;;;;;;;4.53;2.60;;;24.70;53.50;;;;;;5051030;28;20057;-61
2022/10/25 09:22:29;;;;;;;2.60;1.83;;;24.70;53.50;;;;;;5059752;28;20503;-59
2022/10/25 09:25:02;;;;;;;3.25;2.42;;;24.70;53.50;;;;;;5053760;28;20044;-62
2022/10/25 09:27:44;;;;;;;4.82;2.67;;;24.70;53.40;;;;;;5050518;28;20515;-62
2022/10/25 09:30:13;;;;;;;3.70;2.40;;;24.80;53.50;;;;;;5050846;28;20129;-61
2022/10/25 09:32:51;;;;;;;2.60;2.20;;;24.80;53.50;;;;;;5046909;28;20408;-60
2022/10/25 09:35:26;;;;;;;4.50;2.20;;;24.80;53.40;;;;;;5044694;28;20049;-60
2022/10/25 09:38:06;;;;;;;3.05;2.38;;;24.80;53.30;;;;;;5044773;28;20053;-61
2022/10/25 09:40:44;;;;;;;4.30;2.55;;;24.80;53.20;;;;;;5055351;28;20045;-61
2022/10/25 09:43:18;;;;;;;5.43;2.55;;;24.90;53.10;;;;;;5051084;28;21005;-60
2022/10/25 09:45:54;;;;;;;5.50;3.22;;;24.90;53.00;;;;;;5043172;28;20059;-60
2022/10/25 09:48:42;;;;;;;7.15;2.88;;;25.00;53.00;;;;;;5045401;28;20397;-60
2022/10/25 09:51:50;;;;;;;2.33;2.00;;;24.90;52.90;;;;;;5044364;28;20489;-61
2022/10/25 09:54:27;;;;;;;3.25;2.13;;;25.00;52.80;;;;;;5050040;28;20507;-62
2022/10/25 09:56:54;;;;;;;4.97;2.63;;;25.10;52.70;;;;;;5054861;28;20629;-61
2022/10/25 09:59:21;;;;;;;7.55;2.45;;;25.10;52.50;;;;;;5053377;28;20060;-61
2022/10/25 10:01:48;;;;;;;9.90;2.80;;;25.00;52.20;;;;;;5054838;28;20084;-61
2022/10/25 10:04:33;;;;;;;6.63;2.80;;;25.00;52.20;;;;;;5063126;28;20037;-61
2022/10/25 10:07:27;;;;;;;2.80;2.08;;;25.00;52.30;;;;;;5068258;28;20052;-62
2022/10/25 10:09:59;;;;;;;2.13;1.80;;;25.00;52.40;;;;;;5063645;28;20039;-61
2022/10/25 10:12:34;;;;;;;5.72;2.47;;;25.10;52.50;;;;;;5065018;28;20496;-61
2022/10/25 10:15:07;;;;;;;3.63;2.35;;;25.00;52.40;;;;;;5061302;28;20040;-61
2022/10/25 10:17:34;;;;;;;6.57;2.00;;;25.10;52.40;;;;;;5052463;28;20052;-62
2022/10/25 10:20:12;;;;;;;3.70;2.13;;;25.10;52.30;;;;;;5058644;28;20060;-61
2022/10/25 10:22:51;;;;;;;2.47;1.73;;;25.00;52.30;;;;;;5058061;28;20465;-61
2022/10/25 10:25:23;;;;;;;3.15;2.25;;;25.10;52.20;;;;;;5057300;28;20127;-61
2022/10/25 10:27:53;;;;;;;2.85;2.03;;;25.00;52.20;;;;;;5053274;28;20056;-61
2022/10/25 10:30:27;;;;;;;2.97;1.85;;;25.00;52.20;;;;;;5055578;28;20059;-62
2022/10/25 10:33:02;;;;;;;2.45;2.10;;;25.10;52.20;;;;;;5051485;28;20076;-61
2022/10/25 10:35:32;;;;;;;3.83;2.25;;;25.10;52.20;;;;;;5056891;28;20049;-62
2022/10/25 10:38:21;;;;;;;3.53;2.10;;;25.10;52.20;;;;;;5052097;28;20053;-60
2022/10/25 10:41:13;;;;;;;1.80;1.70;;;25.10;52.20;;;;;;5053329;28;20041;-61
2022/10/25 10:43:40;;;;;;;3.10;2.42;;;25.10;52.20;;;;;;5059757;28;20152;-61
2022/10/25 10:46:15;;;;;;;3.13;2.03;;;25.10;52.20;;;;;;5050213;28;20049;-61
2022/10/25 10:48:51;;;;;;;2.20;2.00;;;25.10;52.20;;;;;;5053479;28;20063;-61
2022/10/25 10:51:20;;;;;;;1.90;1.40;;;25.10;52.10;;;;;;5053620;28;20080;-59
2022/10/25 10:54:24;;;;;;;2.65;1.83;;;25.20;52.20;;;;;;5064638;28;20613;-60
2022/10/25 10:57:02;;;;;;;4.85;2.08;;;25.20;52.10;;;;;;5072838;28;20045;-61
2022/10/25 10:59:35;;;;;;;5.20;2.47;;;25.10;52.00;;;;;;5048081;28;20048;-61
2022/10/25 11:02:26;;;;;;;2.03;1.83;;;25.20;52.10;;;;;;5048047;28;20072;-61
2022/10/25 11:04:55;;;;;;;2.33;1.95;;;25.20;52.00;;;;;;5049511;28;20049;-63
2022/10/25 11:07:34;;;;;;;2.63;1.77;;;25.20;52.00;;;;;;5053961;28;20059;-60
2022/10/25 11:10:19;;;;;;;1.90;1.70;;;25.20;52.00;;;;;;5045460;28;20405;-60
2022/10/25 11:13:11;;;;;;;2.05;1.50;;;25.20;52.00;;;;;;5047818;28;20056;-61
2022/10/25 11:16:11;;;;;;;4.25;1.95;;;25.20;51.90;;;;;;5053515;28;20049;-61
2022/10/25 11:19:19;;;;;;;3.17;1.60;;;25.20;51.80;;;;;;5056212;28;20057;-62
2022/10/25 11:22:13;;;;;;;1.73;1.25;;;25.30;51.90;;;;;;5056547;28;20044;-59
2022/10/25 11:25:07;;;;;;;2.00;1.50;;;25.20;51.70;;;;;;5056877;28;20526;-61
2022/10/25 11:28:02;;;;;;;1.92;1.55;;;25.30;51.80;;;;;;5052302;28;20045;-64
2022/10/25 11:30:42;;;;;;;1.55;1.45;;;25.30;51.70;;;;;;5047299;28;20049;-60
2022/10/25 11:33:22;;;;;;;;;;;25.40;51.60;;;;;;5049895;28;20049;-61
2022/10/25 11:36:12;;;;;;;2.35;1.65;;;25.40;51.60;;;;;;5053077;28;19928;-62
2022/10/25 11:39:06;;;;;;;3.42;1.08;;;25.40;51.50;;;;;;5050125;28;20489;-63
2022/10/25 11:41:50;;;;;;;3.22;1.63;;;25.40;51.40;;;;;;5059025;28;20075;-62
2022/10/25 11:44:57;;;;;;;1.30;1.10;;;25.50;51.30;;;;;;5044585;28;20076;-61
2022/10/25 11:47:52;;;;;;;2.85;1.50;;;25.50;51.30;;;;;;5044922;28;20057;-61
2022/10/25 11:50:42;;;;;;;3.22;1.45;;;25.60;51.30;;;;;;5044977;28;20041;-61
2022/10/25 11:53:32;;;;;;;8.02;1.77;;;25.60;51.20;;;;;;5046963;28;20061;-61
2022/10/25 11:56:02;;;;;;;;;;;25.60;51.10;;;;;;5048142;28;20049;-61
2022/10/25 11:59:03;;;;;;;4.53;1.60;;;25.60;51.10;;;;;;5052912;28;20388;-62
2022/10/25 12:01:57;;;;;;;1.40;1.30;;;25.60;51.10;;;;;;5048794;28;20060;-61
2022/10/25 12:05:02;;;;;;;2.75;1.67;;;25.60;51.10;;;;;;5056203;28;20140;-61
2022/10/25 12:07:49;;;;;;;2.10;1.45;;;25.60;51.00;;;;;;5058197;28;20131;-61
2022/10/25 12:10:51;;;;;;;3.03;1.05;;;25.60;51.00;;;;;;5033597;28;20052;-61
2022/10/25 12:13:25;;;;;;;3.45;1.60;;;25.60;51.00;;;;;;5033748;28;21561;-61
2022/10/25 12:15:55;;;;;;;1.77;1.20;;;25.60;51.00;;;;;;5039190;28;20056;-64
2022/10/25 12:18:32;;;;;;;1.98;1.27;;;25.60;51.00;;;;;;5043622;28;20044;-63
2022/10/25 12:21:01;;;;;;;1.58;1.40;;;25.50;50.90;;;;;;5040922;28;20063;-62
2022/10/25 12:23:42;;;;;;;4.20;1.10;;;25.50;50.90;;;;;;5044909;28;20377;-62
2022/10/25 12:26:26;;;;;;;1.63;1.30;;;25.50;50.90;;;;;;5049761;28;20059;-62
2022/10/25 12:28:55;;;;;;;0.95;0.90;;;25.50;50.90;;;;;;5053265;28;20478;-64
2022/10/25 12:31:37;;;;;;;1.90;1.13;;;25.50;50.90;;;;;;5045873;28;20099;-61
2022/10/25 12:34:35;;;;;;;4.40;1.45;;;25.50;51.00;;;;;;5049011;28;20049;-64
2022/10/25 12:37:23;;;;;;;1.27;1.17;;;25.50;51.10;;;;;;5055729;28;20051;-62
2022/10/25 12:39:51;;;;;;;2.33;1.25;;;25.50;51.10;;;;;;5045290;28;20066;-62
2022/10/25 12:42:33;;;;;;;0.88;0.85;;;25.50;51.10;;;;;;5043505;28;20131;-63
2022/10/25 12:45:39;;;;;;;2.60;1.55;;;25.50;51.20;;;;;;5046517;28;20087;-61
2022/10/25 12:48:38;;;;;;;1.13;1.00;;;25.50;51.20;;;;;;5044110;28;20511;-63
2022/10/25 12:51:35;;;;;;;1.42;1.05;;;25.50;51.20;;;;;;5041172;28;20041;-61
2022/10/25 12:54:28;;;;;;;0.70;0.70;;;25.60;51.20;;;;;;5047815;28;20484;-62
2022/10/25 12:57:25;;;;;;;1.27;0.70;;;25.50;51.10;;;;;;5040514;28;20066;-62
2022/10/25 13:00:14;;;;;;;2.00;0.73;;;25.50;51.20;;;;;;5034697;28;20067;-64
2022/10/25 13:03:19;;;;;;;0.63;0.63;;;25.50;51.20;;;;;;5033965;28;20058;-62
2022/10/25 13:06:13;;;;;;;1.58;1.02;;;25.50;51.30;;;;;;5044215;28;22007;-61
2022/10/25 13:08:42;;;;;;;1.05;0.90;;;25.60;51.50;;;;;;5047080;28;20090;-62
2022/10/25 13:11:10;;;;;;;1.77;0.88;;;25.60;51.40;;;;;;5040602;28;20045;-61
2022/10/25 13:13:52;;;;;;;3.22;0.88;;;25.60;51.50;;;;;;5046026;28;20462;-61
2022/10/25 13:16:26;;;;;;;4.07;1.17;;;25.60;51.60;;;;;;5050188;28;20230;-61
2022/10/25 13:19:22;;;;;;;1.85;0.80;;;25.60;51.60;;;;;;5050071;28;20056;-61
2022/10/25 13:22:30;;;;;;;2.45;1.00;;;25.70;51.60;;;;;;5051990;28;20049;-61
2022/10/25 13:25:36;;;;;;;1.65;1.00;;;25.70;51.50;;;;;;5041405;28;20060;-61
2022/10/25 13:28:26;;;;;;;2.40;0.70;;;25.70;51.50;;;;;;5045684;28;20567;-61
2022/10/25 13:31:39;;;;;;;2.22;1.00;;;25.70;51.60;;;;;;5048122;28;20107;-62